createdAt,value
2018-06-10T00:02:04.780Z,7.20
2018-06-10T00:04:32.933Z,10.57
2018-06-10T00:07:01.125Z,7.97
2018-06-10T00:09:29.738Z,8.67
2018-06-10T00:11:57.727Z,9.33
2018-06-10T00:14:25.856Z,8.30
2018-06-10T00:16:54.050Z,9.10
2018-06-10T00:19:22.941Z,8.53
2018-06-10T00:21:51.092Z,8.70
2018-06-10T00:24:19.064Z,9.23
2018-06-10T00:26:47.044Z,9.80
2018-06-10T00:29:22.104Z,8.97
2018-06-10T00:31:50.347Z,8.50
2018-06-10T00:34:18.709Z,9.70
2018-06-10T00:36:47.004Z,8.07
2018-06-10T00:39:16.080Z,9.30
2018-06-10T00:41:44.135Z,8.23
2018-06-10T00:44:12.225Z,8.47
2018-06-10T00:46:40.640Z,11.23
2018-06-10T00:49:08.701Z,8.13
2018-06-10T00:51:37.885Z,9.40
2018-06-10T00:54:06.153Z,9.57
2018-06-10T00:56:39.896Z,9.60
2018-06-10T00:59:07.875Z,9.50
2018-06-10T01:01:35.901Z,9.93
2018-06-10T01:04:04.083Z,10.03
2018-06-10T01:06:32.092Z,10.20
2018-06-10T01:09:00.361Z,8.93
2018-06-10T01:11:28.631Z,10.33
2018-06-10T01:13:56.845Z,10.13
2018-06-10T01:16:24.855Z,11.83
2018-06-10T01:18:52.901Z,12.30
2018-06-10T01:21:20.933Z,10.63
2018-06-10T01:23:49.083Z,10.30
2018-06-10T01:26:23.002Z,10.93
2018-06-10T01:28:51.048Z,10.40
2018-06-10T01:31:19.028Z,11.53
2018-06-10T01:33:47.106Z,11.13
2018-06-10T01:36:15.127Z,11.03
2018-06-10T01:38:43.121Z,12.30
2018-06-10T01:41:11.568Z,10.83
2018-06-10T01:43:39.565Z,11.27
2018-06-10T01:46:07.865Z,12.57
2018-06-10T01:48:36.028Z,12.23
2018-06-10T01:51:04.321Z,12.37
2018-06-10T01:53:33.272Z,12.83
2018-06-10T01:56:01.363Z,10.53
2018-06-10T02:08:14.485Z,11.67
2018-06-10T02:10:42.636Z,13.43
2018-06-10T02:13:10.633Z,12.50
2018-06-10T02:15:39.100Z,13.63
2018-06-10T02:18:07.441Z,13.37
2018-06-10T02:20:35.484Z,12.50
2018-06-10T02:23:03.617Z,12.90
2018-06-10T02:25:31.896Z,13.40
2018-06-10T02:27:59.936Z,13.83
2018-06-10T02:30:27.965Z,12.60
2018-06-10T02:32:56.193Z,14.80
2018-06-10T02:35:24.539Z,12.87
2018-06-10T02:37:52.739Z,13.70
2018-06-10T02:40:20.918Z,11.60
2018-06-10T02:42:48.963Z,11.87
2018-06-10T02:45:17.137Z,12.40
2018-06-10T02:47:45.446Z,13.70
2018-06-10T02:50:13.454Z,15.20
2018-06-10T02:52:41.559Z,14.07
2018-06-10T02:55:10.676Z,12.17
2018-06-10T02:57:39.632Z,13.60
2018-06-10T03:00:07.663Z,12.50
2018-06-10T03:02:35.716Z,14.10
2018-06-10T03:05:05.080Z,12.53
2018-06-10T03:07:33.167Z,12.60
2018-06-10T03:10:01.369Z,14.00
2018-06-10T03:12:29.394Z,14.73
2018-06-10T03:14:57.651Z,13.20
2018-06-10T03:17:25.878Z,14.00
2018-06-10T03:19:53.909Z,16.13
2018-06-10T03:22:22.097Z,13.07
2018-06-10T03:24:50.094Z,13.63
2018-06-10T03:27:18.394Z,14.67
2018-06-10T03:29:47.271Z,12.93
2018-06-10T03:32:15.888Z,13.43
2018-06-10T03:34:43.935Z,13.43
2018-06-10T03:37:12.809Z,15.43
2018-06-10T03:39:41.056Z,12.10
2018-06-10T03:42:09.581Z,16.80
2018-06-10T03:44:38.955Z,17.10
2018-06-10T03:47:07.249Z,17.20
2018-06-10T03:59:28.793Z,17.10
2018-06-10T04:01:56.867Z,18.30
2018-06-10T04:04:25.127Z,19.17
2018-06-10T04:06:53.141Z,19.53
2018-06-10T04:09:21.310Z,20.70
2018-06-10T04:11:49.727Z,21.50
2018-06-10T04:14:18.285Z,20.60
2018-06-10T04:16:46.422Z,19.77
2018-06-10T04:19:15.061Z,21.43
2018-06-10T04:21:43.293Z,19.83
2018-06-10T04:24:11.505Z,21.80
2018-06-10T04:26:40.092Z,19.90
2018-06-10T04:29:08.265Z,19.30
2018-06-10T04:31:36.518Z,21.97
2018-06-10T04:34:04.497Z,21.30
2018-06-10T04:36:32.827Z,22.30
2018-06-10T04:39:00.892Z,22.43
2018-06-10T04:41:28.907Z,20.20
2018-06-10T04:43:56.957Z,20.53
2018-06-10T04:46:24.961Z,21.83
2018-06-10T04:48:52.959Z,21.00
2018-06-10T04:51:20.961Z,22.87
2018-06-10T04:53:49.084Z,22.13
2018-06-10T04:56:17.075Z,21.13
2018-06-10T04:58:45.159Z,21.10
2018-06-10T05:01:13.236Z,23.23
2018-06-10T05:03:41.241Z,24.37
2018-06-10T05:06:09.380Z,20.60
2018-06-10T05:08:37.637Z,23.13
2018-06-10T05:11:05.636Z,21.67
2018-06-10T05:13:33.699Z,21.43
2018-06-10T05:16:02.714Z,20.53
2018-06-10T05:18:31.716Z,21.80
2018-06-10T05:20:59.767Z,18.57
2018-06-10T05:23:27.746Z,20.10
2018-06-10T05:25:55.827Z,20.20
2018-06-10T05:28:24.525Z,20.60
2018-06-10T05:30:52.504Z,20.97
2018-06-10T05:33:20.632Z,21.07
2018-06-10T05:35:48.683Z,23.13
2018-06-10T05:38:16.880Z,22.57
2018-06-10T05:40:45.730Z,20.40
2018-06-10T05:43:13.745Z,21.10
2018-06-10T05:45:41.911Z,20.93
2018-06-10T05:48:11.013Z,20.20
2018-06-10T05:50:39.040Z,18.83
2018-06-10T05:53:07.481Z,18.80
2018-06-10T05:55:37.470Z,21.20
2018-06-10T05:58:06.496Z,20.63
2018-06-10T06:00:34.664Z,18.93
2018-06-10T06:03:02.652Z,20.67
2018-06-10T06:05:30.673Z,19.80
2018-06-10T06:07:58.793Z,20.73
2018-06-10T06:10:27.232Z,21.37
2018-06-10T06:12:55.301Z,21.73
2018-06-10T06:15:23.361Z,21.70
2018-06-10T06:17:51.484Z,21.50
2018-06-10T06:20:19.685Z,21.37
2018-06-10T06:22:47.788Z,21.50
2018-06-10T06:25:15.957Z,20.93
2018-06-10T06:27:44.043Z,20.80
2018-06-10T06:30:12.083Z,20.67
2018-06-10T06:32:40.246Z,19.23
2018-06-10T06:35:08.589Z,19.23
2018-06-10T06:37:37.192Z,19.60
2018-06-10T06:40:05.970Z,19.03
2018-06-10T06:42:34.901Z,20.63
2018-06-10T06:45:09.693Z,20.10
2018-06-10T06:47:37.763Z,20.30
2018-06-10T06:50:07.364Z,20.33
2018-06-10T06:52:35.536Z,19.07
2018-06-10T06:55:03.872Z,19.40
2018-06-10T06:57:31.947Z,19.20
2018-06-10T07:00:00.101Z,17.57
2018-06-10T07:02:28.302Z,18.40
2018-06-10T07:04:56.308Z,18.10
2018-06-10T07:07:24.471Z,19.27
2018-06-10T07:09:52.555Z,18.10
2018-06-10T07:12:20.813Z,20.33
2018-06-10T07:14:49.565Z,17.47
2018-06-10T07:17:17.700Z,16.70
2018-06-10T07:19:45.950Z,17.27
2018-06-10T07:22:13.940Z,17.40
2018-06-10T07:24:42.039Z,17.63
2018-06-10T07:27:10.159Z,17.13
2018-06-10T07:29:38.477Z,17.20
2018-06-10T07:32:07.839Z,18.13
2018-06-10T07:34:36.128Z,17.13
2018-06-10T07:37:04.444Z,18.00
2018-06-10T07:39:32.590Z,17.67
2018-06-10T07:42:00.765Z,15.87
2018-06-10T07:44:30.082Z,16.20
2018-06-10T07:46:58.568Z,18.20
2018-06-10T07:49:26.576Z,17.73
2018-06-10T07:51:54.570Z,19.40
2018-06-10T07:54:22.658Z,17.90
2018-06-10T07:56:50.740Z,18.27
2018-06-10T07:59:18.732Z,18.80
2018-06-10T08:01:47.687Z,18.90
2018-06-10T08:04:15.712Z,18.17
2018-06-10T08:06:43.697Z,16.63
2018-06-10T08:09:11.849Z,17.50
2018-06-10T08:11:39.906Z,17.23
2018-06-10T08:14:07.964Z,17.50
2018-06-10T08:16:36.205Z,16.20
2018-06-10T08:19:04.389Z,16.20
2018-06-10T08:21:33.480Z,16.27
2018-06-10T08:24:02.018Z,16.43
2018-06-10T08:26:30.279Z,16.83
2018-06-10T08:28:58.294Z,17.50
2018-06-10T08:31:26.425Z,16.23
2018-06-10T08:33:54.458Z,18.60
2018-06-10T08:36:22.903Z,16.30
2018-06-10T08:38:50.944Z,16.27
2018-06-10T08:41:19.265Z,16.40
2018-06-10T08:43:47.369Z,16.80
2018-06-10T08:46:15.910Z,16.80
2018-06-10T08:48:49.334Z,15.70
2018-06-10T08:51:17.613Z,17.87
2018-06-10T08:53:45.679Z,17.60
2018-06-10T08:56:14.281Z,16.83
2018-06-10T08:58:42.394Z,19.13
2018-06-10T09:01:10.515Z,15.37
2018-06-10T09:03:38.629Z,17.47
2018-06-10T09:06:06.913Z,16.97
2018-06-10T09:08:35.329Z,16.47
2018-06-10T09:11:03.461Z,17.50
2018-06-10T09:13:31.789Z,17.70
2018-06-10T09:15:59.871Z,18.20
2018-06-10T09:18:28.014Z,18.20
2018-06-10T09:20:56.035Z,18.33
2018-06-10T09:23:24.063Z,17.70
2018-06-10T09:25:52.434Z,19.50
2018-06-10T09:28:21.220Z,19.20
2018-06-10T09:30:49.315Z,19.00
2018-06-10T09:33:17.536Z,17.83
2018-06-10T09:35:45.768Z,18.60
2018-06-10T09:38:13.943Z,21.60
2018-06-10T09:40:42.232Z,20.53
2018-06-10T09:43:10.606Z,22.37
2018-06-10T09:45:38.640Z,22.20
2018-06-10T09:48:06.773Z,21.03
2018-06-10T09:57:51.522Z,17.30
2018-06-10T10:00:22.766Z,17.40
2018-06-10T10:02:52.057Z,18.73
2018-06-10T10:05:20.058Z,17.83
2018-06-10T10:07:48.290Z,19.33
2018-06-10T10:10:16.297Z,18.00
2018-06-10T10:12:44.513Z,18.10
2018-06-10T10:15:13.143Z,18.00
2018-06-10T10:17:41.163Z,18.50
2018-06-10T10:20:10.260Z,18.60
2018-06-10T10:22:38.948Z,17.80
2018-06-10T10:25:06.969Z,17.73
2018-06-10T10:27:35.325Z,18.00
2018-06-10T10:30:05.314Z,17.47
2018-06-10T10:32:33.328Z,17.30
2018-06-10T10:35:01.938Z,17.63
2018-06-10T10:37:30.403Z,16.70
2018-06-10T10:39:58.469Z,18.03
2018-06-10T10:42:27.462Z,18.63
2018-06-10T10:44:55.782Z,17.97
2018-06-10T10:47:24.643Z,19.40
2018-06-10T10:49:53.545Z,18.90
2018-06-10T10:52:22.462Z,18.23
2018-06-10T10:54:51.715Z,19.10
2018-06-10T10:57:19.884Z,20.40
2018-06-10T10:59:49.121Z,21.27
2018-06-10T11:02:17.577Z,19.73
2018-06-10T11:04:45.596Z,18.50
2018-06-10T11:07:14.477Z,17.70
2018-06-10T11:09:43.661Z,19.60
2018-06-10T11:12:11.893Z,18.27
2018-06-10T11:14:40.185Z,17.47
2018-06-10T11:17:10.433Z,16.90
2018-06-10T11:19:38.603Z,17.30
2018-06-10T11:22:09.485Z,17.07
2018-06-10T11:24:37.710Z,19.40
2018-06-10T11:27:06.335Z,18.60
2018-06-10T11:29:34.360Z,18.20
2018-06-10T11:32:03.297Z,17.57
2018-06-10T11:34:31.347Z,17.70
2018-06-10T11:36:59.676Z,17.10
2018-06-10T11:39:27.881Z,16.77
2018-06-10T11:41:56.043Z,18.40
2018-06-10T11:44:24.619Z,16.20
2018-06-10T11:46:53.554Z,16.83
2018-06-10T11:49:21.792Z,16.20
2018-06-10T11:51:50.363Z,17.23
2018-06-10T11:54:19.239Z,20.27
2018-06-10T11:56:47.329Z,20.20
2018-06-10T11:59:15.629Z,16.50
2018-06-10T12:01:44.325Z,16.67
2018-06-10T12:04:12.484Z,16.70
2018-06-10T12:06:40.645Z,15.93
2018-06-10T12:09:08.903Z,15.17
2018-06-10T12:11:39.501Z,13.90
2018-06-10T12:14:08.504Z,15.23
2018-06-10T12:16:37.271Z,14.43
2018-06-10T12:19:05.727Z,15.17
2018-06-10T12:21:34.103Z,15.37
2018-06-10T12:24:03.247Z,12.67
2018-06-10T12:26:32.067Z,14.40
2018-06-10T12:29:01.103Z,13.63
2018-06-10T12:31:29.984Z,12.87
2018-06-10T12:33:58.182Z,12.77
2018-06-10T12:36:27.000Z,12.20
2018-06-10T12:38:55.083Z,12.37
2018-06-10T12:41:24.978Z,12.13
2018-06-10T12:43:57.747Z,12.77
2018-06-10T12:46:28.399Z,13.47
2018-06-10T12:48:57.488Z,12.70
2018-06-10T12:51:25.599Z,12.33
2018-06-10T12:53:55.182Z,11.10
2018-06-10T12:56:23.611Z,10.67
2018-06-10T12:58:51.822Z,10.27
2018-06-10T13:01:21.276Z,11.10
2018-06-10T13:03:49.480Z,10.90
2018-06-10T13:06:17.540Z,11.87
2018-06-10T13:08:46.077Z,11.43
2018-06-10T13:11:14.934Z,10.93
2018-06-10T13:13:43.666Z,10.27
2018-06-10T13:16:12.023Z,13.17
2018-06-10T13:18:42.318Z,11.03
2018-06-10T13:21:10.365Z,12.40
2018-06-10T13:23:38.462Z,12.10
2018-06-10T13:26:08.569Z,12.80
2018-06-10T13:28:37.417Z,11.90
2018-06-10T13:31:06.175Z,10.73
2018-06-10T13:33:34.369Z,10.47
2018-06-10T13:36:03.396Z,10.43
2018-06-10T13:38:31.783Z,11.13
2018-06-10T13:41:00.791Z,12.27
2018-06-10T13:43:29.680Z,11.33
2018-06-10T13:45:58.642Z,11.43
2018-06-10T13:48:27.946Z,10.90
2018-06-10T13:50:56.982Z,10.93
2018-06-10T13:53:25.630Z,11.37
2018-06-10T13:55:53.810Z,12.07
2018-06-10T13:58:21.945Z,11.37
2018-06-10T14:00:50.444Z,11.47
2018-06-10T14:03:18.935Z,11.60
2018-06-10T14:18:42.622Z,8.37
2018-06-10T14:21:10.746Z,10.17
2018-06-10T14:23:38.787Z,8.97
2018-06-10T14:26:09.768Z,8.10
2018-06-10T14:28:38.002Z,7.87
2018-06-10T14:31:07.034Z,6.67
2018-06-10T14:33:35.173Z,6.77
2018-06-10T14:36:04.780Z,6.93
2018-06-10T14:54:02.976Z,6.87
2018-06-10T14:56:31.014Z,7.33
2018-06-10T14:58:59.508Z,6.60
2018-06-10T15:01:27.534Z,6.87
2018-06-10T15:03:57.013Z,7.30
2018-06-10T15:06:25.743Z,6.80
2018-06-10T15:08:54.001Z,5.73
2018-06-10T15:11:23.479Z,6.13
2018-06-10T15:13:51.658Z,5.37
2018-06-10T15:16:20.509Z,6.00
2018-06-10T15:18:48.884Z,6.17
2018-06-10T15:21:17.789Z,6.30
2018-06-10T15:23:45.802Z,6.13
2018-06-10T15:26:14.184Z,6.10
2018-06-10T15:28:42.283Z,5.10
2018-06-10T15:31:10.801Z,6.40
2018-06-10T15:33:38.992Z,5.53
2018-06-10T15:36:07.090Z,4.80
2018-06-10T15:38:35.107Z,5.53
2018-06-10T15:41:03.312Z,6.57
2018-06-10T15:43:31.629Z,6.43
2018-06-10T15:46:00.054Z,5.53
2018-06-10T15:48:28.352Z,6.80
2018-06-10T15:50:56.571Z,6.07
2018-06-10T15:53:25.099Z,7.67
2018-06-10T15:55:53.335Z,6.00
2018-06-10T15:58:22.284Z,6.30
2018-06-10T16:00:50.781Z,7.33
2018-06-10T17:26:43.212Z,8.23
2018-06-10T17:29:11.608Z,10.37
2018-06-10T17:31:40.249Z,8.90
2018-06-10T17:34:08.485Z,10.97
2018-06-10T17:36:36.558Z,9.53
2018-06-10T17:39:06.289Z,11.27
2018-06-10T17:41:35.837Z,11.00
2018-06-10T17:44:04.412Z,11.30
2018-06-10T17:46:32.842Z,11.67
2018-06-10T17:49:01.318Z,10.80
2018-06-10T17:51:29.501Z,10.70
2018-06-10T17:53:58.508Z,11.73
2018-06-10T17:56:26.651Z,12.37
2018-06-10T17:58:54.701Z,11.87
2018-06-10T18:01:23.075Z,11.80
2018-06-10T18:03:51.700Z,12.53
2018-06-10T18:06:20.534Z,13.57
2018-06-10T18:08:50.082Z,11.40
2018-06-10T18:11:18.510Z,13.57
2018-06-10T18:13:47.403Z,13.87
2018-06-10T18:16:15.609Z,13.93
2018-06-10T18:18:44.300Z,13.33
2018-06-10T18:21:12.639Z,13.90
2018-06-10T18:23:40.837Z,14.80
2018-06-10T18:26:09.082Z,15.90
2018-06-10T18:28:37.703Z,13.53
2018-06-10T18:31:06.141Z,14.50
2018-06-10T18:33:35.295Z,12.73
2018-06-10T18:36:04.304Z,15.83
2018-06-10T18:38:32.745Z,14.80
2018-06-10T18:41:01.401Z,13.10
2018-06-10T18:43:29.942Z,13.23
2018-06-10T18:45:58.339Z,14.40
2018-06-10T18:48:27.311Z,14.33
2018-06-10T18:50:57.384Z,11.03
2018-06-10T18:53:27.483Z,12.63
2018-06-10T18:55:57.269Z,11.50
2018-06-10T18:58:26.253Z,11.20
2018-06-10T19:00:55.980Z,12.27
2018-06-10T19:03:24.399Z,10.97
2018-06-10T19:05:52.816Z,12.23
2018-06-10T19:08:21.379Z,10.73
2018-06-10T19:10:49.841Z,11.57
2018-06-10T19:13:19.040Z,12.33
2018-06-10T19:15:47.939Z,11.97
2018-06-10T19:18:16.546Z,11.80
2018-06-10T19:20:45.156Z,11.87
2018-06-10T19:23:13.738Z,11.23
2018-06-10T19:25:42.939Z,11.27
2018-06-10T19:28:11.451Z,11.47
2018-06-10T19:30:40.200Z,10.70
2018-06-10T19:35:43.743Z,11.10
2018-06-10T19:38:12.303Z,11.10
2018-06-10T19:40:41.290Z,11.57
2018-06-10T19:43:11.106Z,10.70
2018-06-10T19:45:39.974Z,11.63
2018-06-10T19:48:09.012Z,10.93
2018-06-10T19:50:38.939Z,10.80
2018-06-10T19:53:07.622Z,11.70
2018-06-10T19:55:36.284Z,10.87
2018-06-10T19:58:04.872Z,11.17
2018-06-10T20:00:33.629Z,10.43
2018-06-10T20:03:02.417Z,11.40
2018-06-10T20:05:30.949Z,12.53
2018-06-10T20:07:59.350Z,12.30
2018-06-10T20:10:28.061Z,11.90
2018-06-10T20:12:56.320Z,12.57
2018-06-10T20:15:24.939Z,10.40
2018-06-10T20:17:53.589Z,12.00
2018-06-10T20:20:22.039Z,11.80
2018-06-10T20:22:50.506Z,11.47
2018-06-10T20:25:19.273Z,11.10
2018-06-10T20:27:47.533Z,10.93
2018-06-10T20:30:15.916Z,11.13
2018-06-10T20:32:44.406Z,11.50
2018-06-10T20:35:12.993Z,11.40
2018-06-10T20:37:41.269Z,11.60
2018-06-10T20:40:09.426Z,10.70
2018-06-10T20:42:37.621Z,11.27
2018-06-10T20:45:05.903Z,12.63
2018-06-10T20:47:34.624Z,11.30
2018-06-10T20:50:04.061Z,11.87
2018-06-10T20:52:32.450Z,11.80
2018-06-10T20:55:00.965Z,12.13
2018-06-10T20:57:29.520Z,10.50
2018-06-10T20:59:57.825Z,11.90
2018-06-10T21:02:26.027Z,12.50
2018-06-10T21:04:54.249Z,11.23
2018-06-10T21:07:22.350Z,10.90
2018-06-10T21:09:50.439Z,10.53
2018-06-10T21:12:18.553Z,11.60
2018-06-10T21:14:46.712Z,10.43
2018-06-10T21:17:14.834Z,10.87
2018-06-10T21:19:43.190Z,10.60
2018-06-10T21:22:11.769Z,10.20
2018-06-10T21:24:40.037Z,10.70
2018-06-10T21:27:08.156Z,10.80
2018-06-10T21:29:36.363Z,11.23
2018-06-10T21:32:05.098Z,10.53
2018-06-10T21:34:33.426Z,11.27
2018-06-10T21:37:01.556Z,10.63
2018-06-10T21:39:29.779Z,11.07
2018-06-10T21:41:57.884Z,11.53
2018-06-10T21:44:26.069Z,10.60
2018-06-10T21:46:54.532Z,10.10
2018-06-10T21:49:22.789Z,10.23
2018-06-10T21:51:51.397Z,10.90
2018-06-10T21:54:19.705Z,10.03
2018-06-10T21:56:47.737Z,11.07
2018-06-10T21:59:15.881Z,10.03
2018-06-10T22:01:44.081Z,10.63
2018-06-10T22:04:12.129Z,11.03
2018-06-10T22:06:40.237Z,10.03
2018-06-10T22:09:08.368Z,10.93
2018-06-10T22:11:36.450Z,10.90
2018-06-10T22:14:05.047Z,10.20
2018-06-10T22:16:33.812Z,10.77
2018-06-10T22:19:02.001Z,10.83
2018-06-10T22:21:30.192Z,10.10
2018-06-10T22:23:58.527Z,10.50
2018-06-10T22:26:26.581Z,10.87
2018-06-10T22:28:55.513Z,10.77
2018-06-10T22:31:23.553Z,10.00
2018-06-10T22:33:51.859Z,10.73
2018-06-10T22:36:19.904Z,10.77
2018-06-10T22:38:48.083Z,11.10
2018-06-10T22:41:16.392Z,10.80
2018-06-10T22:43:44.565Z,9.97
2018-06-10T22:46:13.446Z,10.63
2018-06-10T22:48:41.499Z,10.37
2018-06-10T22:51:09.706Z,10.37
2018-06-10T22:54:09.298Z,10.77
2018-06-10T22:56:37.773Z,11.17
2018-06-10T22:59:06.004Z,10.40
2018-06-10T23:01:34.012Z,11.47
2018-06-10T23:04:03.474Z,10.40
2018-06-10T23:06:31.641Z,11.13
2018-06-10T23:08:59.791Z,11.20
2018-06-10T23:11:27.872Z,10.70
2018-06-10T23:13:55.871Z,11.57
2018-06-10T23:16:23.905Z,10.80
2018-06-10T23:18:52.040Z,10.97
2018-06-10T23:21:20.228Z,10.57
2018-06-10T23:23:48.228Z,10.17
2018-06-10T23:26:16.271Z,10.90
2018-06-10T23:28:44.622Z,11.87
2018-06-10T23:31:12.701Z,9.77
2018-06-10T23:33:40.720Z,10.20
2018-06-10T23:36:09.014Z,10.90
2018-06-10T23:38:37.024Z,11.17
2018-06-10T23:41:05.049Z,9.30
2018-06-10T23:43:33.044Z,9.63
2018-06-10T23:46:01.106Z,10.47
2018-06-10T23:48:29.540Z,10.50
2018-06-10T23:50:57.718Z,10.50
2018-06-10T23:53:25.759Z,9.97
2018-06-10T23:55:53.810Z,9.80
2018-06-10T23:58:22.408Z,10.30
